createdAt,value
2023-03-06T00:01:48.693Z,4.20
2023-03-06T00:03:50.460Z,4.43
2023-03-06T00:05:52.256Z,4.45
2023-03-06T00:07:53.913Z,4.07
2023-03-06T00:09:55.553Z,4.80
2023-03-06T00:11:57.182Z,4.43
2023-03-06T00:13:58.803Z,4.15
2023-03-06T00:16:01.130Z,6.22
2023-03-06T00:18:06.711Z,4.43
2023-03-06T00:20:10.749Z,4.15
2023-03-06T00:22:14.898Z,4.35
2023-03-06T00:24:16.636Z,4.10
2023-03-06T00:26:18.300Z,4.10
2023-03-06T00:28:20.003Z,4.50
2023-03-06T00:30:24.097Z,4.07
2023-03-06T00:32:26.640Z,4.20
2023-03-06T00:34:28.407Z,5.30
2023-03-06T00:36:30.147Z,4.00
2023-03-06T00:38:35.379Z,4.13
2023-03-06T00:40:37.016Z,4.07
2023-03-06T00:42:38.681Z,3.83
2023-03-06T00:44:40.357Z,3.70
2023-03-06T00:46:41.970Z,4.53
2023-03-06T00:48:44.045Z,4.40
2023-03-06T00:50:45.641Z,4.10
2023-03-06T00:52:47.340Z,4.38
2023-03-06T00:54:49.140Z,4.00
2023-03-06T00:56:50.827Z,4.70
2023-03-06T00:58:52.529Z,4.22
2023-03-06T01:00:54.227Z,4.03
2023-03-06T01:02:56.037Z,3.95
2023-03-06T01:04:57.720Z,4.53
2023-03-06T01:06:59.662Z,5.22
2023-03-06T01:09:01.312Z,4.65
2023-03-06T01:11:02.995Z,3.92
2023-03-06T01:13:04.718Z,4.55
2023-03-06T01:15:07.389Z,4.15
2023-03-06T01:17:09.092Z,3.88
2023-03-06T01:19:10.976Z,3.90
2023-03-06T01:21:12.859Z,4.20
2023-03-06T01:23:14.523Z,4.53
2023-03-06T01:25:16.207Z,3.95
2023-03-06T01:27:17.851Z,4.03
2023-03-06T01:29:19.746Z,4.32
2023-03-06T01:31:21.374Z,4.05
2023-03-06T01:33:23.096Z,4.05
2023-03-06T01:35:24.816Z,4.38
2023-03-06T01:37:26.519Z,4.40
2023-03-06T01:39:28.700Z,4.00
2023-03-06T01:41:32.493Z,3.88
2023-03-06T01:43:36.389Z,3.90
2023-03-06T01:45:38.081Z,4.57
2023-03-06T01:47:39.782Z,5.45
2023-03-06T01:49:41.932Z,4.32
2023-03-06T01:52:06.786Z,3.83
2023-03-06T01:54:15.411Z,4.25
2023-03-06T01:56:17.203Z,3.63
2023-03-06T01:58:20.074Z,4.07
2023-03-06T02:00:25.741Z,4.03
2023-03-06T02:02:27.910Z,4.45
2023-03-06T02:04:30.383Z,3.90
2023-03-06T02:06:35.761Z,4.43
2023-03-06T02:08:37.905Z,4.13
2023-03-06T02:10:49.936Z,3.70
2023-03-06T02:12:52.037Z,4.10
2023-03-06T02:14:53.960Z,4.45
2023-03-06T02:16:55.665Z,3.92
2023-03-06T02:19:00.154Z,4.03
2023-03-06T02:21:08.552Z,4.00
2023-03-06T02:23:16.623Z,4.18
2023-03-06T02:25:39.678Z,3.70
2023-03-06T02:27:41.390Z,3.90
2023-03-06T02:29:44.001Z,4.60
2023-03-06T02:31:45.728Z,3.95
2023-03-06T02:33:47.374Z,4.10
2023-03-06T02:35:58.221Z,4.00
2023-03-06T02:38:05.372Z,4.35
2023-03-06T02:40:12.225Z,5.00
2023-03-06T02:42:23.647Z,3.60
2023-03-06T02:44:27.763Z,4.88
2023-03-06T02:46:29.608Z,4.07
2023-03-06T02:48:31.330Z,4.10
2023-03-06T02:50:33.276Z,4.22
2023-03-06T02:52:35.006Z,3.67
2023-03-06T02:54:36.753Z,3.92
2023-03-06T02:56:38.405Z,5.05
2023-03-06T02:58:40.026Z,3.88
2023-03-06T03:00:42.201Z,3.60
2023-03-06T03:02:44.178Z,3.70
2023-03-06T03:04:45.882Z,4.55
2023-03-06T03:06:47.588Z,4.10
2023-03-06T03:08:49.193Z,3.90
2023-03-06T03:10:50.871Z,3.72
2023-03-06T03:12:52.528Z,3.70
2023-03-06T03:14:55.636Z,4.00
2023-03-06T03:16:57.476Z,3.85
2023-03-06T03:18:59.113Z,3.65
2023-03-06T03:21:01.099Z,4.05
2023-03-06T03:23:02.788Z,4.03
2023-03-06T03:25:04.906Z,3.53
2023-03-06T03:27:06.672Z,3.95
2023-03-06T03:29:08.378Z,3.50
2023-03-06T03:31:11.418Z,3.67
2023-03-06T03:33:13.209Z,3.72
2023-03-06T03:35:14.899Z,4.10
2023-03-06T03:37:16.611Z,3.60
2023-03-06T03:39:18.349Z,4.00
2023-03-06T03:41:20.135Z,4.13
2023-03-06T03:43:22.023Z,3.78
2023-03-06T03:45:24.186Z,5.18
2023-03-06T03:47:25.866Z,3.78
2023-03-06T03:49:27.555Z,3.72
2023-03-06T03:51:29.199Z,4.07
2023-03-06T03:53:30.809Z,3.60
2023-03-06T03:55:32.539Z,3.10
2023-03-06T03:57:34.208Z,3.30
2023-03-06T03:59:35.835Z,3.42
2023-03-06T04:01:39.697Z,3.97
2023-03-06T04:03:41.526Z,3.20
2023-03-06T04:05:43.176Z,3.72
2023-03-06T04:07:44.889Z,3.38
2023-03-06T04:09:47.282Z,3.83
2023-03-06T04:11:48.949Z,3.67
2023-03-06T04:13:50.660Z,3.60
2023-03-06T04:15:54.374Z,3.67
2023-03-06T04:17:55.997Z,3.10
2023-03-06T04:19:57.598Z,3.30
2023-03-06T04:21:59.250Z,3.35
2023-03-06T04:24:00.910Z,3.20
2023-03-06T04:26:03.352Z,3.00
2023-03-06T04:28:05.791Z,3.15
2023-03-06T04:30:08.145Z,2.83
2023-03-06T04:32:09.972Z,3.17
2023-03-06T04:34:11.644Z,3.55
2023-03-06T04:36:33.017Z,3.80
2023-03-06T04:40:36.718Z,2.88
2023-03-06T04:42:38.537Z,3.53
2023-03-06T04:44:40.135Z,3.17
2023-03-06T04:46:41.862Z,3.20
2023-03-06T04:48:44.110Z,3.10
2023-03-06T04:50:45.881Z,3.72
2023-03-06T04:52:47.556Z,3.25
2023-03-06T04:54:49.198Z,3.30
2023-03-06T04:56:50.941Z,2.92
2023-03-06T04:58:52.558Z,3.30
2023-03-06T05:00:54.203Z,2.80
2023-03-06T05:02:56.586Z,2.90
2023-03-06T05:04:58.308Z,3.35
2023-03-06T05:06:59.950Z,2.80
2023-03-06T05:09:01.594Z,3.03
2023-03-06T05:11:03.358Z,3.20
2023-03-06T05:13:05.717Z,2.78
2023-03-06T05:15:08.442Z,2.83
2023-03-06T05:17:10.514Z,2.80
2023-03-06T05:19:12.215Z,4.05
2023-03-06T05:21:13.892Z,3.15
2023-03-06T05:23:15.677Z,2.47
2023-03-06T05:25:17.404Z,2.90
2023-03-06T05:27:19.103Z,2.85
2023-03-06T05:29:20.805Z,2.70
2023-03-06T05:31:22.552Z,2.80
2023-03-06T05:33:24.523Z,2.25
2023-03-06T05:35:26.404Z,2.70
2023-03-06T05:37:28.077Z,2.88
2023-03-06T05:39:30.039Z,3.00
2023-03-06T05:41:31.666Z,2.78
2023-03-06T05:43:33.276Z,3.10
2023-03-06T05:45:35.468Z,2.95
2023-03-06T05:47:37.129Z,2.75
2023-03-06T05:49:39.305Z,2.90
2023-03-06T05:51:40.978Z,2.90
2023-03-06T05:53:42.636Z,2.90
2023-03-06T05:55:44.298Z,2.75
2023-03-06T05:57:46.031Z,2.92
2023-03-06T05:59:49.024Z,2.60
2023-03-06T06:01:50.719Z,3.05
2023-03-06T06:03:52.469Z,3.00
2023-03-06T06:05:54.177Z,2.78
2023-03-06T06:07:55.789Z,3.08
2023-03-06T06:09:57.462Z,2.45
2023-03-06T06:12:01.678Z,3.20
2023-03-06T06:14:03.334Z,3.85
2023-03-06T06:16:11.319Z,2.25
2023-03-06T06:18:13.029Z,3.05
2023-03-06T06:20:17.106Z,2.55
2023-03-06T06:22:18.709Z,2.95
2023-03-06T06:24:23.464Z,2.65
2023-03-06T06:26:25.078Z,2.75
2023-03-06T06:28:28.491Z,2.80
2023-03-06T06:30:30.779Z,3.92
2023-03-06T06:32:32.519Z,2.75
2023-03-06T06:34:34.689Z,2.88
2023-03-06T06:36:36.459Z,2.78
2023-03-06T06:38:38.127Z,3.05
2023-03-06T06:40:39.772Z,2.85
2023-03-06T06:42:41.664Z,2.80
2023-03-06T06:44:43.368Z,2.60
2023-03-06T06:49:07.653Z,2.90
2023-03-06T06:51:09.278Z,2.88
2023-03-06T06:53:10.901Z,2.70
2023-03-06T06:55:13.206Z,2.78
2023-03-06T06:57:15.686Z,2.53
2023-03-06T06:59:17.708Z,2.50
2023-03-06T07:01:19.379Z,2.38
2023-03-06T07:03:21.065Z,2.13
2023-03-06T07:05:22.671Z,2.60
2023-03-06T07:07:25.563Z,2.17
2023-03-06T07:09:30.724Z,2.60
2023-03-06T07:11:32.376Z,2.50
2023-03-06T07:13:34.965Z,2.15
2023-03-06T07:15:36.596Z,2.47
2023-03-06T07:17:38.369Z,2.38
2023-03-06T07:19:40.052Z,2.50
2023-03-06T07:21:41.857Z,2.45
2023-03-06T07:23:43.824Z,2.30
2023-03-06T07:25:45.800Z,2.80
2023-03-06T07:27:53.420Z,2.40
2023-03-06T07:29:55.748Z,2.58
2023-03-06T07:31:57.358Z,2.50
2023-03-06T07:33:59.062Z,2.85
2023-03-06T07:36:00.763Z,2.30
2023-03-06T07:38:02.505Z,2.85
2023-03-06T07:40:05.878Z,2.60
2023-03-06T07:42:07.769Z,2.45
2023-03-06T07:44:09.399Z,2.42
2023-03-06T07:46:12.716Z,2.33
2023-03-06T07:48:14.977Z,2.30
2023-03-06T07:50:17.235Z,2.55
2023-03-06T07:52:18.950Z,2.42
2023-03-06T07:54:20.569Z,2.42
2023-03-06T07:56:22.232Z,2.67
2023-03-06T07:58:24.636Z,2.47
2023-03-06T08:00:26.782Z,2.85
2023-03-06T08:02:28.541Z,2.75
2023-03-06T08:04:30.336Z,2.72
2023-03-06T08:06:32.886Z,3.03
2023-03-06T08:08:36.140Z,2.47
2023-03-06T08:10:37.761Z,2.33
2023-03-06T08:12:39.459Z,2.63
2023-03-06T08:14:41.441Z,3.08
2023-03-06T08:16:43.222Z,2.50
2023-03-06T08:18:46.336Z,2.78
2023-03-06T08:20:48.320Z,3.67
2023-03-06T08:22:50.048Z,2.55
2023-03-06T08:24:55.210Z,2.28
2023-03-06T08:26:56.903Z,2.50
2023-03-06T08:29:01.535Z,3.03
2023-03-06T08:31:10.645Z,3.47
2023-03-06T08:33:12.304Z,2.30
2023-03-06T08:35:14.471Z,2.72
2023-03-06T08:37:16.209Z,3.30
2023-03-06T08:39:17.981Z,2.50
2023-03-06T08:41:20.771Z,2.75
2023-03-06T08:43:22.623Z,2.55
2023-03-06T08:45:24.437Z,2.05
2023-03-06T08:47:26.334Z,3.10
2023-03-06T08:49:28.022Z,1.80
2023-03-06T08:51:29.722Z,2.28
2023-03-06T08:53:42.663Z,2.00
2023-03-06T08:55:45.569Z,2.97
2023-03-06T08:57:47.295Z,2.20
2023-03-06T08:59:48.909Z,3.30
2023-03-06T09:01:50.562Z,1.80
2023-03-06T09:03:54.877Z,2.30
2023-03-06T09:05:56.606Z,2.35
2023-03-06T09:07:58.325Z,2.00
2023-03-06T09:10:00.178Z,3.13
2023-03-06T09:12:02.049Z,2.15
2023-03-06T09:14:05.503Z,1.85
2023-03-06T09:16:08.356Z,5.45
2023-03-06T09:18:09.995Z,2.80
2023-03-06T09:20:12.289Z,1.90
2023-03-06T09:22:13.958Z,2.17
2023-03-06T09:24:15.701Z,2.05
2023-03-06T09:26:17.414Z,3.33
2023-03-06T09:28:19.146Z,1.98
2023-03-06T09:30:20.996Z,2.53
2023-03-06T09:32:23.679Z,3.63
2023-03-06T09:34:27.523Z,2.15
2023-03-06T09:36:29.206Z,1.98
2023-03-06T09:38:30.997Z,2.30
2023-03-06T09:40:57.316Z,1.85
2023-03-06T09:42:59.115Z,2.60
2023-03-06T09:45:02.746Z,3.50
2023-03-06T09:47:22.982Z,2.35
2023-03-06T09:49:37.763Z,2.05
2023-03-06T09:51:51.196Z,1.38
2023-03-06T09:54:05.209Z,1.80
2023-03-06T09:56:17.797Z,1.92
2023-03-06T09:58:25.360Z,2.08
2023-03-06T10:00:35.023Z,2.05
2023-03-06T10:03:19.299Z,2.67
2023-03-06T10:05:25.681Z,4.40
2023-03-06T10:07:47.227Z,2.00
2023-03-06T10:09:56.402Z,1.70
2023-03-06T10:12:04.837Z,1.95
2023-03-06T10:14:27.712Z,1.50
2023-03-06T10:16:33.220Z,2.00
2023-03-06T10:18:38.397Z,1.95
2023-03-06T10:21:18.810Z,1.60
2023-03-06T10:23:46.620Z,3.30
2023-03-06T10:26:01.981Z,4.00
2023-03-06T10:28:24.374Z,1.77
2023-03-06T10:30:46.230Z,2.70
2023-03-06T10:33:00.261Z,1.52
2023-03-06T10:35:04.093Z,1.45
2023-03-06T10:37:22.136Z,2.88
2023-03-06T10:39:23.840Z,3.67
2023-03-06T10:41:35.804Z,5.35
2023-03-06T10:43:40.489Z,2.40
2023-03-06T10:45:50.364Z,3.28
2023-03-06T10:48:10.843Z,3.40
2023-03-06T10:50:24.389Z,1.90
2023-03-06T10:52:30.403Z,2.17
2023-03-06T10:54:38.482Z,1.70
2023-03-06T10:56:42.719Z,1.55
2023-03-06T10:58:44.419Z,2.10
2023-03-06T11:00:46.196Z,1.38
2023-03-06T11:03:15.908Z,1.40
2023-03-06T11:05:20.016Z,3.70
2023-03-06T11:07:28.411Z,1.83
2023-03-06T11:09:30.208Z,1.40
2023-03-06T11:11:37.703Z,2.55
2023-03-06T11:13:42.565Z,1.50
2023-03-06T11:16:04.112Z,2.13
2023-03-06T11:18:08.895Z,1.83
2023-03-06T11:20:22.402Z,1.50
2023-03-06T11:22:24.227Z,2.65
2023-03-06T11:24:27.401Z,2.47
2023-03-06T11:26:37.922Z,2.33
2023-03-06T11:28:46.302Z,1.63
2023-03-06T11:30:52.502Z,1.60
2023-03-06T11:33:03.161Z,2.03
2023-03-06T11:35:11.782Z,1.50
2023-03-06T11:37:32.019Z,1.60
2023-03-06T11:39:49.385Z,1.80
2023-03-06T11:42:14.886Z,3.35
2023-03-06T11:44:40.590Z,1.75
2023-03-06T11:46:50.062Z,1.90
2023-03-06T11:49:13.376Z,1.40
2023-03-06T11:51:21.240Z,1.95
2023-03-06T11:53:35.726Z,1.38
2023-03-06T11:56:08.157Z,1.85
2023-03-06T11:58:37.934Z,2.20
2023-03-06T12:01:03.069Z,1.48
2023-03-06T12:03:17.038Z,1.30
2023-03-06T12:05:44.905Z,1.20
2023-03-06T12:07:59.586Z,3.75
2023-03-06T12:10:18.949Z,1.55
2023-03-06T12:12:54.797Z,1.50
2023-03-06T12:15:11.885Z,1.35
2023-03-06T12:17:39.525Z,1.23
2023-03-06T12:19:46.558Z,2.45
2023-03-06T12:22:16.294Z,1.63
2023-03-06T12:24:17.931Z,2.30
2023-03-06T12:26:50.150Z,2.05
2023-03-06T12:29:15.992Z,1.73
2023-03-06T12:31:34.914Z,3.17
2023-03-06T12:34:21.726Z,1.75
2023-03-06T12:36:35.350Z,1.55
2023-03-06T12:38:58.671Z,2.35
2023-03-06T12:41:07.793Z,1.45
2023-03-06T12:43:19.745Z,2.05
2023-03-06T12:45:29.729Z,1.63
2023-03-06T12:47:38.700Z,1.35
2023-03-06T12:49:44.157Z,1.40
2023-03-06T12:51:46.546Z,1.30
2023-03-06T12:53:49.843Z,1.73
2023-03-06T12:55:52.346Z,1.60
2023-03-06T12:57:54.093Z,1.60
2023-03-06T12:59:55.914Z,2.13
2023-03-06T13:02:10.576Z,1.35
2023-03-06T13:04:35.283Z,1.75
2023-03-06T13:07:15.828Z,1.63
2023-03-06T13:09:45.462Z,1.40
2023-03-06T13:11:52.910Z,1.40
2023-03-06T13:13:55.059Z,1.20
2023-03-06T13:16:09.209Z,1.40
2023-03-06T13:18:22.717Z,1.40
2023-03-06T13:20:29.524Z,1.48
2023-03-06T13:22:31.197Z,1.75
2023-03-06T13:24:37.041Z,1.50
2023-03-06T13:26:38.601Z,2.15
2023-03-06T13:28:51.829Z,1.98
2023-03-06T13:30:53.626Z,1.70
2023-03-06T13:32:56.103Z,1.83
2023-03-06T13:34:57.920Z,1.88
2023-03-06T13:37:22.927Z,2.15
2023-03-06T13:39:24.556Z,1.40
2023-03-06T13:41:34.485Z,1.23
2023-03-06T13:43:43.841Z,1.30
2023-03-06T13:45:48.202Z,1.48
2023-03-06T13:48:21.169Z,1.60
2023-03-06T13:50:27.399Z,1.50
2023-03-06T13:52:42.982Z,1.50
2023-03-06T13:54:56.599Z,2.00
2023-03-06T13:57:19.361Z,1.33
2023-03-06T13:59:30.674Z,1.55
2023-03-06T14:01:57.360Z,1.60
2023-03-06T14:04:14.097Z,1.88
2023-03-06T14:06:40.566Z,2.45
2023-03-06T14:08:42.412Z,1.30
2023-03-06T14:10:46.495Z,1.58
2023-03-06T14:12:50.910Z,2.30
2023-03-06T14:14:57.366Z,2.05
2023-03-06T14:16:59.211Z,1.63
2023-03-06T14:19:01.609Z,1.50
2023-03-06T14:21:05.759Z,3.03
2023-03-06T14:23:24.011Z,2.22
2023-03-06T14:25:31.170Z,1.50
2023-03-06T14:27:43.716Z,1.58
2023-03-06T14:29:48.653Z,1.63
2023-03-06T14:31:56.119Z,2.03
2023-03-06T14:34:05.903Z,1.38
2023-03-06T14:36:12.596Z,1.63
2023-03-06T14:38:16.117Z,1.50
2023-03-06T14:40:23.556Z,1.42
2023-03-06T14:42:27.082Z,4.30
2023-03-06T14:44:28.731Z,1.90
2023-03-06T14:46:30.376Z,1.58
2023-03-06T14:48:44.164Z,1.65
2023-03-06T14:51:14.936Z,1.52
2023-03-06T14:53:21.520Z,1.60
2023-03-06T14:55:28.225Z,1.75
2023-03-06T14:57:30.007Z,1.50
2023-03-06T14:59:40.605Z,3.90
2023-03-06T15:01:46.105Z,1.52
2023-03-06T15:03:50.711Z,1.58
2023-03-06T15:05:53.836Z,1.95
2023-03-06T15:08:00.905Z,1.67
2023-03-06T15:10:02.687Z,1.45
2023-03-06T15:12:08.460Z,1.42
2023-03-06T15:14:18.844Z,2.65
2023-03-06T15:16:30.841Z,1.48
2023-03-06T15:18:36.093Z,1.52
2023-03-06T15:20:45.841Z,1.58
2023-03-06T15:22:50.468Z,1.67
2023-03-06T15:24:52.709Z,1.10
2023-03-06T15:26:56.686Z,2.03
2023-03-06T15:29:10.298Z,1.40
2023-03-06T15:31:20.757Z,1.50
2023-03-06T15:33:25.031Z,1.63
2023-03-06T15:35:29.545Z,1.33
2023-03-06T15:37:34.182Z,1.77
2023-03-06T15:39:41.375Z,2.10
2023-03-06T15:41:43.141Z,1.60
2023-03-06T15:43:44.850Z,3.10
2023-03-06T15:45:46.595Z,3.70
2023-03-06T15:47:50.291Z,3.42
2023-03-06T15:49:53.216Z,2.33
2023-03-06T15:51:54.996Z,1.55
2023-03-06T15:54:09.927Z,2.95
2023-03-06T15:56:13.911Z,1.70
2023-03-06T15:58:20.325Z,3.03
2023-03-06T16:00:31.284Z,1.40
2023-03-06T16:02:33.374Z,1.40
2023-03-06T16:04:35.078Z,1.45
2023-03-06T16:06:37.552Z,1.38
2023-03-06T16:08:39.176Z,1.98
2023-03-06T16:10:43.735Z,1.50
2023-03-06T16:12:51.361Z,1.38
2023-03-06T16:14:54.416Z,1.50
2023-03-06T16:16:56.487Z,5.38
2023-03-06T16:18:58.114Z,1.60
2023-03-06T16:20:59.817Z,2.13
2023-03-06T16:23:01.525Z,1.20
2023-03-06T16:25:03.316Z,1.70
2023-03-06T16:27:05.215Z,1.85
2023-03-06T16:29:08.111Z,2.78
2023-03-06T16:31:13.166Z,2.22
2023-03-06T16:33:14.911Z,1.40
2023-03-06T16:35:17.152Z,2.85
2023-03-06T16:37:18.801Z,1.50
2023-03-06T16:39:22.846Z,1.45
2023-03-06T16:41:24.494Z,4.63
2023-03-06T16:43:26.084Z,2.22
2023-03-06T16:45:27.692Z,2.80
2023-03-06T16:47:30.808Z,1.88
2023-03-06T16:49:32.482Z,2.05
2023-03-06T16:51:34.287Z,1.40
2023-03-06T16:53:35.882Z,1.60
2023-03-06T16:55:37.545Z,1.60
2023-03-06T16:57:39.139Z,2.10
2023-03-06T16:59:41.088Z,3.22
2023-03-06T17:01:43.399Z,1.88
2023-03-06T17:03:45.913Z,2.58
2023-03-06T17:05:47.623Z,1.52
2023-03-06T17:07:50.234Z,1.55
2023-03-06T17:09:51.838Z,1.55
2023-03-06T17:11:53.479Z,1.80
2023-03-06T17:13:55.238Z,1.55
2023-03-06T17:15:59.294Z,1.90
2023-03-06T17:18:01.145Z,2.00
2023-03-06T17:20:04.203Z,2.10
2023-03-06T17:22:05.933Z,1.60
2023-03-06T17:24:07.903Z,3.58
2023-03-06T17:26:19.165Z,1.70
2023-03-06T17:28:21.314Z,1.80
2023-03-06T17:30:23.003Z,1.70
2023-03-06T17:32:24.831Z,2.65
2023-03-06T17:34:26.612Z,2.88
2023-03-06T17:36:29.247Z,2.22
2023-03-06T17:38:30.836Z,2.88
2023-03-06T17:40:33.841Z,2.53
2023-03-06T17:42:35.697Z,3.47
2023-03-06T17:44:37.813Z,3.25
2023-03-06T17:46:39.498Z,2.92
2023-03-06T17:48:41.174Z,3.30
2023-03-06T17:50:43.477Z,2.55
2023-03-06T17:52:45.810Z,2.60
2023-03-06T17:54:47.425Z,3.15
2023-03-06T17:56:49.061Z,2.83
2023-03-06T17:58:50.730Z,2.95
2023-03-06T18:00:54.208Z,3.30
2023-03-06T18:02:55.857Z,3.33
2023-03-06T18:04:58.227Z,2.78
2023-03-06T18:06:59.926Z,4.30
2023-03-06T18:09:01.673Z,3.47
2023-03-06T18:11:06.472Z,3.63
2023-03-06T18:13:09.098Z,3.08
2023-03-06T18:15:10.828Z,3.05
2023-03-06T18:17:12.445Z,6.43
2023-03-06T18:19:14.553Z,3.53
2023-03-06T18:21:16.767Z,3.67
2023-03-06T18:23:18.703Z,3.35
2023-03-06T18:25:20.441Z,7.03
2023-03-06T18:27:22.285Z,3.10
2023-03-06T18:29:24.117Z,5.85
2023-03-06T18:31:35.025Z,3.10
2023-03-06T18:33:36.723Z,3.70
2023-03-06T18:35:38.479Z,3.40
2023-03-06T18:37:40.216Z,3.22
2023-03-06T18:39:41.978Z,3.53
2023-03-06T18:41:43.648Z,4.90
2023-03-06T18:43:45.851Z,3.45
2023-03-06T18:45:56.990Z,2.80
2023-03-06T18:50:02.434Z,3.08
2023-03-06T18:52:04.266Z,3.13
2023-03-06T18:54:06.780Z,2.83
2023-03-06T18:56:10.682Z,3.78
2023-03-06T18:58:12.372Z,4.22
2023-03-06T19:00:14.425Z,4.93
2023-03-06T19:02:16.108Z,3.13
2023-03-06T19:04:17.867Z,2.75
2023-03-06T19:06:20.271Z,3.85
2023-03-06T19:08:21.940Z,3.15
2023-03-06T19:10:23.666Z,3.10
2023-03-06T19:12:25.366Z,2.35
2023-03-06T19:14:30.321Z,2.58
2023-03-06T19:16:32.134Z,2.88
2023-03-06T19:18:34.228Z,2.45
2023-03-06T19:20:35.876Z,2.47
2023-03-06T19:22:37.520Z,2.65
2023-03-06T19:24:39.168Z,2.90
2023-03-06T19:26:41.819Z,2.42
2023-03-06T19:28:43.635Z,2.50
2023-03-06T19:30:45.326Z,3.60
2023-03-06T19:32:47.063Z,2.80
2023-03-06T19:34:49.543Z,2.40
2023-03-06T19:36:51.558Z,2.65
2023-03-06T19:38:58.000Z,2.42
2023-03-06T19:41:00.936Z,2.30
2023-03-06T19:43:03.062Z,2.10
2023-03-06T19:45:05.915Z,2.40
2023-03-06T19:47:07.581Z,2.88
2023-03-06T19:49:16.677Z,2.50
2023-03-06T19:51:18.338Z,2.40
2023-03-06T19:53:20.074Z,2.53
2023-03-06T19:55:24.218Z,9.98
2023-03-06T19:57:25.907Z,2.22
2023-03-06T19:59:27.613Z,2.28
2023-03-06T20:01:29.328Z,3.17
2023-03-06T20:03:31.053Z,3.17
2023-03-06T20:05:32.984Z,3.13
2023-03-06T20:07:35.402Z,2.47
2023-03-06T20:09:37.123Z,2.30
2023-03-06T20:11:39.243Z,2.40
2023-03-06T20:13:46.909Z,2.67
2023-03-06T20:15:48.929Z,2.13
2023-03-06T20:17:50.631Z,2.40
2023-03-06T20:19:52.525Z,2.28
2023-03-06T20:21:55.721Z,3.35
2023-03-06T20:23:58.179Z,3.55
2023-03-06T20:26:05.917Z,2.60
2023-03-06T20:28:07.535Z,2.42
2023-03-06T20:30:09.724Z,2.13
2023-03-06T20:32:12.816Z,2.58
2023-03-06T20:34:14.887Z,2.33
2023-03-06T20:36:22.457Z,2.10
2023-03-06T20:38:24.092Z,2.55
2023-03-06T20:40:25.763Z,2.35
2023-03-06T20:42:27.465Z,2.40
2023-03-06T20:44:29.329Z,2.22
2023-03-06T20:46:31.599Z,2.03
2023-03-06T20:48:33.354Z,2.60
2023-03-06T20:50:36.057Z,2.60
2023-03-06T20:52:37.676Z,2.40
2023-03-06T20:54:39.583Z,2.10
2023-03-06T20:56:43.254Z,3.35
2023-03-06T20:58:45.336Z,2.95
2023-03-06T21:00:47.062Z,2.47
2023-03-06T21:02:48.756Z,2.67
2023-03-06T21:04:50.520Z,2.30
2023-03-06T21:06:53.836Z,2.25
2023-03-06T21:08:56.880Z,2.25
2023-03-06T21:10:58.543Z,2.08
2023-03-06T21:13:00.294Z,2.25
2023-03-06T21:15:01.943Z,2.30
2023-03-06T21:17:03.651Z,2.33
2023-03-06T21:19:05.373Z,2.72
2023-03-06T21:21:19.337Z,2.50
2023-03-06T21:23:20.977Z,2.33
2023-03-06T21:25:22.705Z,2.10
2023-03-06T21:27:24.375Z,1.90
2023-03-06T21:29:25.984Z,2.10
2023-03-06T21:31:28.423Z,1.83
2023-03-06T21:33:30.177Z,3.70
2023-03-06T21:35:31.853Z,2.08
2023-03-06T21:37:33.468Z,2.45
2023-03-06T21:39:35.108Z,2.10
2023-03-06T21:41:38.042Z,2.38
2023-03-06T21:43:40.213Z,2.42
2023-03-06T21:45:46.299Z,2.08
2023-03-06T21:47:48.973Z,2.25
2023-03-06T21:49:50.610Z,2.30
2023-03-06T21:51:53.090Z,2.25
2023-03-06T21:53:55.375Z,1.90
2023-03-06T21:56:00.415Z,2.22
2023-03-06T21:58:02.014Z,2.08
2023-03-06T22:00:08.420Z,2.30
2023-03-06T22:02:10.985Z,2.65
2023-03-06T22:04:13.152Z,2.63
2023-03-06T22:06:18.679Z,1.75
2023-03-06T22:08:21.329Z,1.90
2023-03-06T22:10:22.942Z,2.40
2023-03-06T22:12:24.579Z,1.90
2023-03-06T22:14:26.175Z,1.90
2023-03-06T22:16:27.955Z,1.90
2023-03-06T22:18:29.569Z,2.03
2023-03-06T22:20:32.353Z,2.00
2023-03-06T22:22:34.011Z,1.98
2023-03-06T22:24:35.689Z,1.77
2023-03-06T22:26:37.373Z,1.95
2023-03-06T22:28:39.972Z,2.13
2023-03-06T22:30:41.964Z,1.90
2023-03-06T22:32:43.605Z,2.00
2023-03-06T22:34:45.293Z,2.58
2023-03-06T22:36:46.912Z,2.15
2023-03-06T22:38:49.251Z,1.70
2023-03-06T22:40:50.955Z,2.13
2023-03-06T22:42:52.670Z,1.90
2023-03-06T22:44:54.278Z,2.03
2023-03-06T22:46:56.008Z,1.85
2023-03-06T22:48:59.656Z,2.03
2023-03-06T22:51:06.254Z,1.92
2023-03-06T22:53:08.094Z,1.83
2023-03-06T22:55:10.114Z,1.75
2023-03-06T22:57:11.905Z,1.83
2023-03-06T22:59:13.547Z,2.90
2023-03-06T23:01:21.105Z,1.70
2023-03-06T23:03:22.765Z,1.60
2023-03-06T23:05:24.545Z,1.80
2023-03-06T23:07:26.319Z,1.92
2023-03-06T23:09:28.246Z,1.73
2023-03-06T23:11:30.467Z,1.98
2023-03-06T23:13:32.255Z,1.70
2023-03-06T23:15:35.774Z,2.00
2023-03-06T23:17:37.456Z,1.92
2023-03-06T23:19:39.158Z,1.88
2023-03-06T23:21:41.038Z,2.05
2023-03-06T23:23:44.211Z,1.88
2023-03-06T23:25:45.975Z,1.80
2023-03-06T23:27:47.651Z,1.65
2023-03-06T23:29:50.326Z,2.00
2023-03-06T23:31:51.960Z,1.50
2023-03-06T23:33:53.861Z,1.80
2023-03-06T23:35:55.553Z,1.83
2023-03-06T23:37:57.689Z,1.90
2023-03-06T23:39:59.405Z,2.05
2023-03-06T23:42:01.480Z,2.05
2023-03-06T23:44:03.185Z,1.90
2023-03-06T23:46:06.057Z,1.75
2023-03-06T23:48:07.983Z,2.42
2023-03-06T23:50:10.213Z,1.60
2023-03-06T23:52:11.797Z,2.00
2023-03-06T23:54:13.469Z,2.92
2023-03-06T23:56:15.281Z,1.90
2023-03-06T23:58:18.724Z,1.77
